createdAt,value
2023-04-30T00:01:15.293Z,9.20
2023-04-30T00:03:42.584Z,10.15
2023-04-30T00:06:09.798Z,9.77
2023-04-30T00:08:37.159Z,9.98
2023-04-30T00:11:04.377Z,10.35
2023-04-30T00:13:31.636Z,10.50
2023-04-30T00:15:58.898Z,10.10
2023-04-30T00:18:26.106Z,10.32
2023-04-30T00:20:53.614Z,10.18
2023-04-30T00:23:20.934Z,9.75
2023-04-30T00:25:48.099Z,10.15
2023-04-30T00:28:15.347Z,10.65
2023-04-30T00:30:42.605Z,10.18
2023-04-30T00:33:09.989Z,9.48
2023-04-30T00:35:37.105Z,10.57
2023-04-30T00:38:04.423Z,10.38
2023-04-30T00:40:33.954Z,10.60
2023-04-30T00:43:01.214Z,10.93
2023-04-30T00:45:30.814Z,9.60
2023-04-30T00:47:58.334Z,10.88
2023-04-30T00:50:25.684Z,11.05
2023-04-30T00:52:53.514Z,10.88
2023-04-30T00:55:20.746Z,11.02
2023-04-30T00:57:48.879Z,11.93
2023-04-30T01:00:16.363Z,11.65
2023-04-30T01:02:46.107Z,11.25
2023-04-30T01:05:13.265Z,12.25
2023-04-30T01:07:45.384Z,11.80
2023-04-30T01:10:15.136Z,11.50
2023-04-30T01:12:48.185Z,11.45
2023-04-30T01:15:18.860Z,12.18
2023-04-30T01:17:57.402Z,12.68
2023-04-30T01:20:26.661Z,13.55
2023-04-30T01:23:03.016Z,13.30
2023-04-30T01:25:45.841Z,12.75
2023-04-30T01:28:17.448Z,11.65
2023-04-30T01:30:45.522Z,12.10
2023-04-30T01:33:13.466Z,12.48
2023-04-30T01:35:44.453Z,11.05
2023-04-30T01:38:28.256Z,12.18
2023-04-30T01:43:34.720Z,12.25
2023-04-30T01:46:19.409Z,9.77
2023-04-30T01:48:56.212Z,9.27
2023-04-30T01:51:30.893Z,9.77
2023-04-30T01:54:06.236Z,11.38
2023-04-30T01:56:44.634Z,9.93
2023-04-30T01:59:14.974Z,10.98
2023-04-30T02:01:42.119Z,10.75
2023-04-30T02:04:09.523Z,10.48
2023-04-30T02:06:36.909Z,9.90
2023-04-30T02:09:06.252Z,9.45
2023-04-30T02:11:33.681Z,11.77
2023-04-30T02:14:01.055Z,12.02
2023-04-30T02:16:28.212Z,13.23
2023-04-30T02:18:55.605Z,13.10
2023-04-30T02:21:22.800Z,12.20
2023-04-30T02:23:50.055Z,11.85
2023-04-30T02:26:17.230Z,10.00
2023-04-30T02:28:44.568Z,10.30
2023-04-30T02:31:11.881Z,9.20
2023-04-30T02:33:39.228Z,8.90
2023-04-30T02:36:06.640Z,12.23
2023-04-30T02:38:33.917Z,12.25
2023-04-30T02:41:02.727Z,12.98
2023-04-30T02:43:30.155Z,12.38
2023-04-30T02:45:57.386Z,12.27
2023-04-30T02:48:24.909Z,10.60
2023-04-30T02:50:52.754Z,11.23
2023-04-30T02:53:20.025Z,9.65
2023-04-30T02:55:47.396Z,10.52
2023-04-30T02:58:14.808Z,10.43
2023-04-30T03:00:41.966Z,11.20
2023-04-30T03:03:09.548Z,11.02
2023-04-30T03:05:36.896Z,10.52
2023-04-30T03:08:04.214Z,11.70
2023-04-30T03:10:31.461Z,12.45
2023-04-30T03:12:58.715Z,11.45
2023-04-30T03:15:26.084Z,13.05
2023-04-30T03:17:53.411Z,11.65
2023-04-30T03:20:20.869Z,12.05
2023-04-30T03:22:48.098Z,9.15
2023-04-30T03:25:15.570Z,9.50
2023-04-30T03:27:42.800Z,11.45
2023-04-30T03:30:10.179Z,11.70
2023-04-30T03:32:38.636Z,10.63
2023-04-30T03:35:06.631Z,11.88
2023-04-30T03:37:34.218Z,10.27
2023-04-30T03:40:01.662Z,9.43
2023-04-30T03:42:28.934Z,9.05
2023-04-30T03:44:56.087Z,9.73
2023-04-30T03:47:23.474Z,10.43
2023-04-30T03:49:55.914Z,11.23
2023-04-30T03:52:24.291Z,9.88
2023-04-30T03:54:51.575Z,9.55
2023-04-30T03:57:20.713Z,10.52
2023-04-30T03:59:48.264Z,9.85
2023-04-30T04:02:16.200Z,10.02
2023-04-30T04:04:44.029Z,10.30
2023-04-30T04:07:11.650Z,8.73
2023-04-30T04:09:38.956Z,10.55
2023-04-30T04:12:06.493Z,11.63
2023-04-30T04:14:34.085Z,11.70
2023-04-30T04:17:02.403Z,13.82
2023-04-30T04:19:29.800Z,13.50
2023-04-30T04:21:58.298Z,11.43
2023-04-30T04:24:26.400Z,12.07
2023-04-30T04:26:54.398Z,10.52
2023-04-30T04:29:21.650Z,11.15
2023-04-30T04:31:49.518Z,11.13
2023-04-30T04:34:17.363Z,11.20
2023-04-30T04:36:44.686Z,10.02
2023-04-30T04:39:12.008Z,9.60
2023-04-30T04:41:39.353Z,11.55
2023-04-30T04:44:08.145Z,9.98
2023-04-30T04:46:38.878Z,9.52
2023-04-30T04:49:06.562Z,10.45
2023-04-30T04:51:34.038Z,11.48
2023-04-30T04:54:01.354Z,12.10
2023-04-30T04:56:28.782Z,11.57
2023-04-30T04:58:56.907Z,10.57
2023-04-30T05:01:24.096Z,11.77
2023-04-30T05:03:52.341Z,13.00
2023-04-30T05:06:20.266Z,10.98
2023-04-30T05:08:47.490Z,13.55
2023-04-30T05:11:15.801Z,13.95
2023-04-30T05:13:43.336Z,14.90
2023-04-30T05:16:10.528Z,15.50
2023-04-30T05:18:37.740Z,15.95
2023-04-30T05:21:04.979Z,16.83
2023-04-30T05:23:32.360Z,15.95
2023-04-30T05:25:59.440Z,15.35
2023-04-30T05:28:26.789Z,15.75
2023-04-30T05:30:53.873Z,14.77
2023-04-30T05:33:21.040Z,14.45
2023-04-30T05:35:48.197Z,14.95
2023-04-30T05:38:15.360Z,15.13
2023-04-30T05:40:42.510Z,14.90
2023-04-30T05:43:10.050Z,14.98
2023-04-30T05:45:37.148Z,14.63
2023-04-30T05:48:04.715Z,13.68
2023-04-30T05:50:31.940Z,12.30
2023-04-30T05:52:59.124Z,12.57
2023-04-30T05:55:26.251Z,13.43
2023-04-30T05:57:53.543Z,13.48
2023-04-30T06:00:20.672Z,14.52
2023-04-30T06:02:48.066Z,12.90
2023-04-30T06:05:16.276Z,14.38
2023-04-30T06:07:43.705Z,11.52
2023-04-30T06:10:12.868Z,12.50
2023-04-30T06:12:41.514Z,11.77
2023-04-30T06:15:08.971Z,9.88
2023-04-30T06:17:36.242Z,14.32
2023-04-30T06:20:07.317Z,12.57
2023-04-30T06:22:34.631Z,12.40
2023-04-30T06:25:01.909Z,13.18
2023-04-30T06:27:29.274Z,13.43
2023-04-30T06:29:56.638Z,11.95
2023-04-30T06:32:24.194Z,13.35
2023-04-30T06:34:51.444Z,13.05
2023-04-30T06:37:18.948Z,12.82
2023-04-30T06:39:46.063Z,13.52
2023-04-30T06:42:13.376Z,18.75
2023-04-30T06:44:40.512Z,22.95
2023-04-30T06:47:08.414Z,16.92
2023-04-30T06:49:35.654Z,14.75
2023-04-30T06:52:03.172Z,12.32
2023-04-30T06:54:30.443Z,12.20
2023-04-30T06:56:57.711Z,12.85
2023-04-30T06:59:24.833Z,13.80
2023-04-30T07:01:52.188Z,12.60
2023-04-30T07:04:20.161Z,11.77
2023-04-30T07:06:47.367Z,11.90
2023-04-30T07:09:15.882Z,11.60
2023-04-30T07:11:43.150Z,10.93
2023-04-30T07:14:10.307Z,10.02
2023-04-30T07:16:37.541Z,10.50
2023-04-30T07:19:04.760Z,10.90
2023-04-30T07:21:32.832Z,11.40
2023-04-30T07:23:59.987Z,11.43
2023-04-30T07:26:27.270Z,10.25
2023-04-30T07:28:54.498Z,12.55
2023-04-30T07:31:21.779Z,10.75
2023-04-30T07:33:50.707Z,9.52
2023-04-30T07:36:18.003Z,10.63
2023-04-30T07:38:45.138Z,10.13
2023-04-30T07:41:12.479Z,12.00
2023-04-30T07:43:39.638Z,10.68
2023-04-30T07:46:07.059Z,10.50
2023-04-30T07:48:34.310Z,10.68
2023-04-30T07:51:01.969Z,11.93
2023-04-30T07:53:29.283Z,10.98
2023-04-30T07:55:56.473Z,11.73
2023-04-30T07:58:23.660Z,10.77
2023-04-30T08:00:50.982Z,9.63
2023-04-30T08:03:20.174Z,9.20
2023-04-30T08:05:48.146Z,10.23
2023-04-30T08:08:15.249Z,8.18
2023-04-30T08:10:42.692Z,8.90
2023-04-30T08:13:09.850Z,8.98
2023-04-30T08:15:38.935Z,9.88
2023-04-30T08:18:06.235Z,10.77
2023-04-30T08:20:34.920Z,9.85
2023-04-30T08:23:04.848Z,9.00
2023-04-30T08:25:32.692Z,10.10
2023-04-30T08:28:00.024Z,9.73
2023-04-30T08:30:27.229Z,9.32
2023-04-30T08:32:56.885Z,9.88
2023-04-30T08:35:25.063Z,10.40
2023-04-30T08:37:53.364Z,9.07
2023-04-30T08:40:23.510Z,9.63
2023-04-30T08:43:03.290Z,9.25
2023-04-30T08:45:31.763Z,9.27
2023-04-30T08:48:00.757Z,8.95
2023-04-30T08:50:28.522Z,9.20
2023-04-30T08:52:55.784Z,9.98
2023-04-30T08:55:22.995Z,10.63
2023-04-30T08:57:50.106Z,10.02
2023-04-30T09:00:17.517Z,9.07
2023-04-30T09:02:45.515Z,9.05
2023-04-30T09:05:14.774Z,10.23
2023-04-30T09:08:01.122Z,9.00
2023-04-30T09:10:34.001Z,9.55
2023-04-30T09:13:05.250Z,8.77
2023-04-30T09:15:34.559Z,8.80
2023-04-30T09:18:04.987Z,8.15
2023-04-30T09:20:32.365Z,8.85
2023-04-30T09:23:06.543Z,8.43
2023-04-30T09:25:37.010Z,8.73
2023-04-30T09:28:07.272Z,9.18
2023-04-30T09:30:34.926Z,8.32
2023-04-30T09:33:02.410Z,8.57
2023-04-30T09:35:31.090Z,8.43
2023-04-30T09:38:01.960Z,8.57
2023-04-30T09:40:32.655Z,7.45
2023-04-30T09:43:00.817Z,6.47
2023-04-30T09:45:39.191Z,7.00
2023-04-30T09:48:16.470Z,6.93
2023-04-30T09:50:46.262Z,7.05
2023-04-30T09:53:15.040Z,6.53
2023-04-30T09:55:45.260Z,6.00
2023-04-30T09:58:13.860Z,5.55
2023-04-30T10:00:42.840Z,6.10
2023-04-30T10:03:13.384Z,5.97
2023-04-30T10:05:47.655Z,6.15
2023-04-30T10:08:22.990Z,5.70
2023-04-30T10:10:54.056Z,6.28
2023-04-30T10:13:22.005Z,6.40
2023-04-30T10:15:51.919Z,5.63
2023-04-30T10:18:22.349Z,5.38
2023-04-30T10:20:50.759Z,5.90
2023-04-30T10:23:18.603Z,5.47
2023-04-30T10:25:46.370Z,5.38
2023-04-30T10:28:13.740Z,5.38
2023-04-30T10:30:43.891Z,5.53
2023-04-30T10:33:15.706Z,6.22
2023-04-30T10:35:47.725Z,5.00
2023-04-30T10:38:22.719Z,5.88
2023-04-30T10:40:49.960Z,4.68
2023-04-30T10:43:20.053Z,4.68
2023-04-30T10:45:47.408Z,4.15
2023-04-30T10:48:24.130Z,4.20
2023-04-30T10:50:55.471Z,6.00
2023-04-30T10:53:23.233Z,6.20
2023-04-30T10:55:53.506Z,5.40
2023-04-30T10:58:24.541Z,5.65
2023-04-30T11:01:01.510Z,4.88
2023-04-30T11:03:30.325Z,5.32
2023-04-30T11:05:57.546Z,5.85
2023-04-30T11:08:33.693Z,4.32
2023-04-30T11:11:01.823Z,5.88
2023-04-30T11:13:29.063Z,5.93
2023-04-30T11:16:04.639Z,5.40
2023-04-30T11:18:33.181Z,4.53
2023-04-30T11:21:02.000Z,5.18
2023-04-30T11:23:40.117Z,4.50
2023-04-30T11:26:10.326Z,4.13
2023-04-30T11:28:38.337Z,5.03
2023-04-30T11:31:06.141Z,3.70
2023-04-30T11:33:35.412Z,4.60
2023-04-30T11:36:04.504Z,3.85
2023-04-30T11:38:35.432Z,4.57
2023-04-30T11:41:03.854Z,3.88
2023-04-30T11:43:32.776Z,4.22
2023-04-30T11:46:04.462Z,3.50
2023-04-30T11:48:33.674Z,3.53
2023-04-30T11:51:05.734Z,3.35
2023-04-30T11:53:33.127Z,2.85
2023-04-30T11:56:03.828Z,3.15
2023-04-30T11:58:35.195Z,3.28
2023-04-30T12:01:02.881Z,2.90
2023-04-30T12:03:31.449Z,3.70
2023-04-30T12:05:58.737Z,3.10
2023-04-30T12:08:26.905Z,3.38
2023-04-30T12:10:54.182Z,3.72
2023-04-30T12:13:21.334Z,4.18
2023-04-30T12:15:51.594Z,3.42
2023-04-30T12:18:18.837Z,3.47
2023-04-30T12:20:46.284Z,3.22
2023-04-30T12:23:13.541Z,3.60
2023-04-30T12:25:44.098Z,2.85
2023-04-30T12:28:12.044Z,3.53
2023-04-30T12:30:39.198Z,3.05
2023-04-30T12:33:07.308Z,2.90
2023-04-30T12:35:35.171Z,3.20
2023-04-30T12:38:04.900Z,3.47
2023-04-30T12:40:32.963Z,3.47
2023-04-30T12:43:02.623Z,3.53
2023-04-30T12:45:33.661Z,2.95
2023-04-30T12:48:01.196Z,3.20
2023-04-30T12:50:28.432Z,3.40
2023-04-30T12:52:55.940Z,3.22
2023-04-30T12:55:23.193Z,3.10
2023-04-30T12:58:06.502Z,2.97
2023-04-30T13:00:36.731Z,3.17
2023-04-30T13:03:04.267Z,3.10
2023-04-30T13:05:31.589Z,3.40
2023-04-30T13:08:03.620Z,3.13
2023-04-30T13:10:30.894Z,3.00
2023-04-30T13:12:58.227Z,2.90
2023-04-30T13:15:25.789Z,2.78
2023-04-30T13:17:54.016Z,3.00
2023-04-30T13:20:21.511Z,2.60
2023-04-30T13:22:48.658Z,3.25
2023-04-30T13:25:16.039Z,2.67
2023-04-30T13:27:43.570Z,2.58
2023-04-30T13:30:11.459Z,2.90
2023-04-30T13:32:38.703Z,2.67
2023-04-30T13:35:06.615Z,3.15
2023-04-30T13:37:33.770Z,3.00
2023-04-30T13:40:01.598Z,2.80
2023-04-30T13:42:28.751Z,2.75
2023-04-30T13:44:56.184Z,2.97
2023-04-30T13:47:23.437Z,2.63
2023-04-30T13:49:50.842Z,2.80
2023-04-30T13:52:17.953Z,2.70
2023-04-30T13:54:45.193Z,3.00
2023-04-30T13:57:12.341Z,3.10
2023-04-30T13:59:39.695Z,2.67
2023-04-30T14:02:07.602Z,2.83
2023-04-30T14:04:34.912Z,2.85
2023-04-30T14:07:02.694Z,3.20
2023-04-30T14:09:30.238Z,2.60
2023-04-30T14:11:59.219Z,2.70
2023-04-30T14:14:26.980Z,2.83
2023-04-30T14:16:54.575Z,2.95
2023-04-30T14:19:23.200Z,2.67
2023-04-30T14:21:50.371Z,2.58
2023-04-30T14:24:18.110Z,2.80
2023-04-30T14:26:46.192Z,2.95
2023-04-30T14:29:13.465Z,2.50
2023-04-30T14:31:40.659Z,2.85
2023-04-30T14:34:08.028Z,2.80
2023-04-30T14:36:36.325Z,2.47
2023-04-30T14:39:04.763Z,2.65
2023-04-30T14:41:34.448Z,2.70
2023-04-30T14:44:01.791Z,2.42
2023-04-30T14:46:29.105Z,2.63
2023-04-30T14:48:56.582Z,2.80
2023-04-30T14:51:23.715Z,3.00
2023-04-30T14:53:50.949Z,2.92
2023-04-30T14:56:18.131Z,2.88
2023-04-30T14:58:45.499Z,2.80
2023-04-30T15:01:12.699Z,3.42
2023-04-30T15:03:40.145Z,2.90
2023-04-30T15:06:07.428Z,3.03
2023-04-30T15:08:34.643Z,2.65
2023-04-30T15:11:01.823Z,2.60
2023-04-30T15:13:29.036Z,2.90
2023-04-30T15:15:56.271Z,2.90
2023-04-30T15:18:23.564Z,2.90
2023-04-30T15:20:50.901Z,2.70
2023-04-30T15:23:18.319Z,3.00
2023-04-30T15:25:45.512Z,3.13
2023-04-30T15:28:12.898Z,3.42
2023-04-30T15:30:40.197Z,4.20
2023-04-30T15:33:07.382Z,5.95
2023-04-30T15:35:34.894Z,6.47
2023-04-30T15:38:02.105Z,7.05
2023-04-30T15:40:29.253Z,6.32
2023-04-30T15:42:56.515Z,6.97
2023-04-30T15:45:25.339Z,8.57
2023-04-30T15:47:52.711Z,7.88
2023-04-30T15:50:19.976Z,8.07
2023-04-30T15:52:47.601Z,9.57
2023-04-30T15:55:14.816Z,8.43
2023-04-30T15:57:42.072Z,7.80
2023-04-30T16:00:10.735Z,9.25
2023-04-30T16:02:39.658Z,8.77
2023-04-30T16:05:07.389Z,7.63
2023-04-30T16:07:34.931Z,6.93
2023-04-30T16:10:02.706Z,7.53
2023-04-30T16:12:30.178Z,7.70
2023-04-30T16:14:57.306Z,6.07
2023-04-30T16:17:24.560Z,5.57
2023-04-30T16:19:51.765Z,5.50
2023-04-30T16:22:19.113Z,5.13
2023-04-30T16:24:46.286Z,5.68
2023-04-30T16:27:13.515Z,4.90
2023-04-30T16:29:40.653Z,4.78
2023-04-30T16:32:08.387Z,4.97
2023-04-30T16:34:35.673Z,5.30
2023-04-30T16:37:02.866Z,3.88
2023-04-30T16:39:30.010Z,4.10
2023-04-30T16:41:57.403Z,4.40
2023-04-30T16:44:24.551Z,4.07
2023-04-30T16:46:51.812Z,4.00
2023-04-30T16:49:18.952Z,4.20
2023-04-30T16:51:47.449Z,3.65
2023-04-30T16:54:14.592Z,3.38
2023-04-30T16:56:42.081Z,3.22
2023-04-30T16:59:09.171Z,2.60
2023-04-30T17:01:36.422Z,3.10
2023-04-30T17:04:04.483Z,3.00
2023-04-30T17:06:33.215Z,2.65
2023-04-30T17:09:00.495Z,2.42
2023-04-30T17:11:28.405Z,2.50
2023-04-30T17:13:55.513Z,2.75
2023-04-30T17:16:22.878Z,2.83
2023-04-30T17:18:50.256Z,2.83
2023-04-30T17:21:17.531Z,2.55
2023-04-30T17:23:44.847Z,2.30
2023-04-30T17:26:12.240Z,2.40
2023-04-30T17:28:40.070Z,2.42
2023-04-30T17:31:08.114Z,2.30
2023-04-30T17:33:35.871Z,2.40
2023-04-30T17:36:03.208Z,2.38
2023-04-30T17:38:30.441Z,2.55
2023-04-30T17:40:57.963Z,2.35
2023-04-30T17:43:25.102Z,2.25
2023-04-30T17:45:53.444Z,2.95
2023-04-30T17:48:20.887Z,2.30
2023-04-30T17:50:48.224Z,2.60
2023-04-30T17:53:15.371Z,2.60
2023-04-30T17:55:42.803Z,3.10
2023-04-30T17:58:11.779Z,3.22
2023-04-30T18:00:40.968Z,2.90
2023-04-30T18:03:09.205Z,2.70
2023-04-30T18:05:36.593Z,3.70
2023-04-30T18:08:03.876Z,3.45
2023-04-30T18:10:31.158Z,3.38
2023-04-30T18:12:59.513Z,3.65
2023-04-30T18:15:27.528Z,3.20
2023-04-30T18:17:55.028Z,2.78
2023-04-30T18:20:22.301Z,3.10
2023-04-30T18:22:49.429Z,4.20
2023-04-30T18:25:17.795Z,4.32
2023-04-30T18:27:45.004Z,5.07
2023-04-30T18:30:12.843Z,4.78
2023-04-30T18:32:42.084Z,4.32
2023-04-30T18:35:09.752Z,3.80
2023-04-30T18:37:37.188Z,3.33
2023-04-30T18:40:05.105Z,3.33
2023-04-30T18:42:33.404Z,3.38
2023-04-30T18:45:01.240Z,3.60
2023-04-30T18:47:28.701Z,2.78
2023-04-30T18:49:56.261Z,2.78
2023-04-30T18:52:23.962Z,2.50
2023-04-30T18:54:51.258Z,2.90
2023-04-30T18:57:18.767Z,3.00
2023-04-30T18:59:45.910Z,2.60
2023-04-30T19:02:14.192Z,2.20
2023-04-30T19:04:41.362Z,2.78
2023-04-30T19:07:08.980Z,2.97
2023-04-30T19:09:37.100Z,3.00
2023-04-30T19:12:04.620Z,3.70
2023-04-30T19:14:31.974Z,4.57
2023-04-30T19:17:00.370Z,5.82
2023-04-30T19:19:27.930Z,6.78
2023-04-30T19:21:55.477Z,6.68
2023-04-30T19:24:23.806Z,7.43
2023-04-30T19:26:51.706Z,6.82
2023-04-30T19:29:19.321Z,8.85
2023-04-30T19:31:46.650Z,8.38
2023-04-30T19:34:14.012Z,8.57
2023-04-30T19:36:44.191Z,8.85
2023-04-30T19:39:12.139Z,9.70
2023-04-30T19:41:39.430Z,10.45
2023-04-30T19:44:08.049Z,10.98
2023-04-30T19:46:35.436Z,11.05
2023-04-30T19:49:02.721Z,10.00
2023-04-30T19:51:30.066Z,10.10
2023-04-30T19:53:58.984Z,10.93
2023-04-30T19:56:26.395Z,10.25
2023-04-30T19:58:53.656Z,9.63
2023-04-30T20:01:20.919Z,10.45
2023-04-30T20:03:48.165Z,8.88
2023-04-30T20:06:15.704Z,8.18
2023-04-30T20:08:42.849Z,9.73
2023-04-30T20:11:10.068Z,8.50
2023-04-30T20:13:37.313Z,10.15
2023-04-30T20:16:04.627Z,7.55
2023-04-30T20:18:32.458Z,7.35
2023-04-30T20:20:59.763Z,8.77
2023-04-30T20:23:26.956Z,7.90
2023-04-30T20:25:55.165Z,7.53
2023-04-30T20:28:22.447Z,7.22
2023-04-30T20:30:49.755Z,6.63
2023-04-30T20:33:17.525Z,7.20
2023-04-30T20:35:46.546Z,6.70
2023-04-30T20:38:17.273Z,6.93
2023-04-30T20:40:46.378Z,7.30
2023-04-30T20:43:14.204Z,7.50
2023-04-30T20:45:43.869Z,7.05
2023-04-30T20:48:11.051Z,6.30
2023-04-30T20:50:38.418Z,5.47
2023-04-30T20:53:05.655Z,6.03
2023-04-30T20:55:32.978Z,5.55
2023-04-30T20:58:00.288Z,6.10
2023-04-30T21:00:27.803Z,5.72
2023-04-30T21:02:55.033Z,6.38
2023-04-30T21:05:22.425Z,5.95
2023-04-30T21:07:49.634Z,4.93
2023-04-30T21:10:16.911Z,6.38
2023-04-30T21:12:44.270Z,4.70
2023-04-30T21:15:12.010Z,5.18
2023-04-30T21:17:39.191Z,3.70
2023-04-30T21:20:07.296Z,4.40
2023-04-30T21:22:35.001Z,3.95
2023-04-30T21:25:02.343Z,4.88
2023-04-30T21:27:29.585Z,4.00
2023-04-30T21:29:57.092Z,4.10
2023-04-30T21:32:24.498Z,3.85
2023-04-30T21:34:51.792Z,3.92
2023-04-30T21:37:18.937Z,3.85
2023-04-30T21:39:46.163Z,3.70
2023-04-30T21:42:13.383Z,3.65
2023-04-30T21:44:40.599Z,3.88
2023-04-30T21:47:08.746Z,3.53
2023-04-30T21:49:36.152Z,3.60
2023-04-30T21:52:07.967Z,3.17
2023-04-30T21:54:35.322Z,3.80
2023-04-30T21:57:02.819Z,3.90
2023-04-30T21:59:30.078Z,4.15
2023-04-30T22:01:58.434Z,3.30
2023-04-30T22:04:26.723Z,3.60
2023-04-30T22:06:54.395Z,3.35
2023-04-30T22:09:21.688Z,3.30
2023-04-30T22:11:49.777Z,4.70
2023-04-30T22:14:17.101Z,3.70
2023-04-30T22:16:44.399Z,3.60
2023-04-30T22:19:11.760Z,3.67
2023-04-30T22:21:39.032Z,3.58
2023-04-30T22:24:07.017Z,3.53
2023-04-30T22:26:34.212Z,3.45
2023-04-30T22:29:01.528Z,3.60
2023-04-30T22:31:29.370Z,3.90
2023-04-30T22:33:56.772Z,4.70
2023-04-30T22:36:23.904Z,5.45
2023-04-30T22:38:51.233Z,4.30
2023-04-30T22:41:18.741Z,3.92
2023-04-30T22:43:47.676Z,6.32
2023-04-30T22:46:15.614Z,4.55
2023-04-30T22:48:44.590Z,5.38
2023-04-30T22:51:11.806Z,5.15
2023-04-30T22:53:39.155Z,4.25
2023-04-30T22:56:06.664Z,3.88
2023-04-30T22:58:34.021Z,4.63
2023-04-30T23:01:01.269Z,4.30
2023-04-30T23:03:28.604Z,3.90
2023-04-30T23:05:58.564Z,3.95
2023-04-30T23:08:26.208Z,3.75
2023-04-30T23:10:55.704Z,4.10
2023-04-30T23:13:23.021Z,4.43
2023-04-30T23:15:50.189Z,4.05
2023-04-30T23:18:17.883Z,3.80
2023-04-30T23:20:45.024Z,3.72
2023-04-30T23:23:12.240Z,4.40
2023-04-30T23:25:39.562Z,4.60
2023-04-30T23:28:06.861Z,4.07
2023-04-30T23:30:37.750Z,4.13
2023-04-30T23:33:05.275Z,4.20
2023-04-30T23:35:32.484Z,4.82
2023-04-30T23:37:59.721Z,4.25
2023-04-30T23:40:26.938Z,5.10
2023-04-30T23:42:54.200Z,5.18
2023-04-30T23:45:22.688Z,4.82
2023-04-30T23:47:50.073Z,5.15
2023-04-30T23:50:17.359Z,5.53
2023-04-30T23:52:44.614Z,6.25
2023-04-30T23:55:12.127Z,6.40
2023-04-30T23:57:39.394Z,5.97
